首页
METAR-TAF:

METAR-TAF

机场 :

伊利, 宾夕法尼亚州, 美国

纬度: 42-04-48N, 经度: 080-10-57W, 海拔: 223米

当前天气观测

该预报发布于39分钟前的18:59 UTC
风速11节,风向西
温度 -2°C
湿度 54%
气压 1031 hPa
能見度: 16.1公里
散云层高于2900英尺

METAR: KERI 191859Z 28011KT 10SM SCT029 M02/M10 A3045 RMK AO2 T10221100

时间: 14:38 (19:38 UTC)

预报

该预报发布于1小时和26分钟前的18:12 UTC
预报有效从19日的 18点(UTC)到 20日的 18点(UTC)
风速12节,风向西
能見度: 10公里
散云层高于3500英尺
多云层高于13000英尺
短暂存在
从 19日的 18点(UTC)到 19日的 20点(UTC)
多云层高于3000英尺
从 19日的 2300点(UTC)
风速10节,风向西
能見度: 10公里
散云层高于25000英尺
从 20日的 0200点(UTC)
风速9节,风向西转西北
能見度: 10公里
阴天层高于3500英尺
从 20日的 0900点(UTC)
风速9节,风向西北
能見度: 10公里
阴天层高于3000英尺

TAF: KERI 191812Z 1918/2018 28012KT P6SM SCT035 BKN130 TEMPO 1918/1920 BKN030 FM192300 27010KT P6SM SCT250 FM200200 29009KT P6SM OVC035 FM200900 32009KT P6SM OVC030

超过4000个机场的气象观测和天气预报(METAR&TAF报告)。

可查询的气象台以黄色和红色小点在地图上表示。

将鼠标移到小点上方,可查看气象台名称。

然后点击查看天气观测和预报。

如需切换地图:点击带黑十字的绿色按钮放大地图;点击带横线的绿色按钮缩小地图;或者点击绿色箭头查看邻近地区的地图。


METAR-TAF: